createdAt,value
2022-10-08T00:03:47.798Z,94.85
2022-10-08T00:08:54.063Z,93.53
2022-10-08T00:13:57.265Z,94.18
2022-10-08T00:19:01.844Z,91.84
2022-10-08T00:24:07.922Z,92.99
2022-10-08T00:29:13.522Z,93.23
2022-10-08T00:34:18.015Z,92.35
2022-10-08T00:39:23.021Z,91.40
2022-10-08T00:44:44.015Z,91.38
2022-10-08T00:49:49.132Z,91.93
2022-10-08T00:54:53.131Z,91.05
2022-10-08T00:59:56.494Z,91.73
2022-10-08T01:04:59.225Z,91.92
2022-10-08T01:10:09.847Z,91.71
2022-10-08T01:15:22.333Z,92.33
2022-10-08T01:20:45.293Z,92.60
2022-10-08T01:25:57.580Z,99.20
2022-10-08T01:31:07.073Z,100.00
2022-10-08T01:36:11.279Z,100.00
2022-10-08T01:41:17.983Z,100.00
2022-10-08T01:46:26.314Z,100.00
2022-10-08T01:51:33.334Z,99.14
2022-10-08T01:56:39.154Z,97.28
2022-10-08T02:01:52.057Z,95.27
2022-10-08T02:06:58.168Z,96.53
2022-10-08T02:12:00.713Z,95.45
2022-10-08T02:17:14.746Z,94.23
2022-10-08T02:22:21.078Z,93.58
2022-10-08T02:27:30.686Z,93.31
2022-10-08T02:32:39.418Z,92.38
2022-10-08T02:37:46.222Z,92.65
2022-10-08T02:42:54.560Z,93.51
2022-10-08T02:48:02.188Z,100.00
2022-10-08T02:53:05.261Z,100.00
2022-10-08T02:58:10.436Z,100.00
2022-10-08T03:03:16.495Z,100.00
2022-10-08T03:08:19.739Z,100.00
2022-10-08T03:13:24.426Z,100.00
2022-10-08T03:18:28.755Z,100.00
2022-10-08T03:23:31.338Z,100.00
2022-10-08T03:28:34.022Z,100.00
2022-10-08T03:33:38.117Z,100.00
2022-10-08T03:38:40.692Z,100.00
2022-10-08T03:43:43.598Z,100.00
2022-10-08T03:48:49.811Z,98.11
2022-10-08T03:53:52.349Z,100.00
2022-10-08T03:58:56.479Z,98.43
2022-10-08T04:04:00.490Z,100.00
2022-10-08T04:09:03.059Z,99.90
2022-10-08T04:14:05.915Z,99.32
2022-10-08T04:19:11.816Z,99.84
2022-10-08T04:24:14.512Z,95.81
2022-10-08T04:29:17.292Z,96.89
2022-10-08T04:34:21.198Z,97.45
2022-10-08T04:39:23.759Z,93.57
2022-10-08T04:44:26.415Z,92.32
2022-10-08T04:49:30.392Z,93.70
2022-10-08T04:54:32.951Z,96.70
2022-10-08T04:59:35.495Z,95.29
2022-10-08T05:04:39.490Z,94.33
2022-10-08T05:09:42.051Z,93.36
2022-10-08T05:14:44.591Z,90.88
2022-10-08T05:19:48.539Z,90.06
2022-10-08T05:24:51.190Z,90.05
2022-10-08T05:29:53.732Z,89.75
2022-10-08T05:34:57.812Z,89.21
2022-10-08T05:40:03.419Z,90.40
2022-10-08T05:45:07.120Z,89.26
2022-10-08T05:50:11.261Z,90.22
2022-10-08T05:55:13.909Z,90.68
2022-10-08T06:00:19.830Z,91.56
2022-10-08T06:05:23.874Z,92.76
2022-10-08T06:10:26.527Z,96.87
2022-10-08T06:15:29.099Z,100.00
2022-10-08T06:20:33.455Z,96.19
2022-10-08T06:25:37.010Z,96.69
2022-10-08T06:30:40.942Z,100.00
2022-10-08T06:35:44.969Z,98.03
2022-10-08T06:40:47.555Z,98.38
2022-10-08T06:45:51.413Z,96.13
2022-10-08T06:51:00.828Z,93.10
2022-10-08T06:56:05.328Z,94.93
2022-10-08T07:01:08.921Z,88.36
2022-10-08T07:06:13.784Z,86.75
2022-10-08T07:11:18.497Z,87.08
2022-10-08T07:16:23.251Z,82.96
2022-10-08T07:21:28.660Z,83.25
2022-10-08T07:26:34.351Z,83.06
2022-10-08T07:31:38.592Z,82.47
2022-10-08T07:36:42.792Z,83.22
2022-10-08T07:41:45.744Z,82.59
2022-10-08T07:46:50.266Z,81.67
2022-10-08T07:51:54.203Z,80.92
2022-10-08T07:56:56.766Z,78.98
2022-10-08T08:01:59.360Z,79.37
2022-10-08T08:07:03.266Z,77.51
2022-10-08T08:12:05.861Z,76.67
2022-10-08T08:17:08.595Z,74.91
2022-10-08T08:22:15.469Z,75.35
2022-10-08T08:27:18.786Z,75.36
2022-10-08T08:32:24.944Z,75.49
2022-10-08T08:37:32.231Z,73.72
2022-10-08T08:42:50.791Z,73.07
2022-10-08T08:48:05.620Z,71.89
2022-10-08T08:53:10.871Z,70.43
2022-10-08T08:58:21.969Z,70.52
2022-10-08T09:03:30.682Z,71.02
2022-10-08T09:08:38.375Z,69.56
2022-10-08T09:13:45.555Z,68.85
2022-10-08T09:18:51.010Z,68.81
2022-10-08T09:23:54.941Z,70.05
2022-10-08T09:28:58.959Z,69.88
2022-10-08T09:34:05.491Z,69.20
2022-10-08T09:39:18.745Z,68.42
2022-10-08T09:44:23.257Z,69.01
2022-10-08T09:49:32.187Z,69.59
2022-10-08T09:54:42.904Z,69.87
2022-10-08T09:59:51.808Z,68.25
2022-10-08T10:04:56.144Z,65.29
2022-10-08T10:10:03.418Z,63.61
2022-10-08T10:15:14.638Z,64.97
2022-10-08T10:20:23.590Z,65.00
2022-10-08T10:25:35.740Z,64.02
2022-10-08T10:30:49.859Z,61.50
2022-10-08T10:35:57.415Z,63.28
2022-10-08T10:41:11.724Z,53.51
2022-10-08T10:46:25.100Z,48.94
2022-10-08T10:51:56.467Z,54.30
2022-10-08T10:57:06.202Z,59.60
2022-10-08T11:02:21.094Z,63.58
2022-10-08T11:07:37.291Z,67.13
2022-10-08T11:12:50.847Z,68.33
2022-10-08T11:18:13.373Z,68.59
2022-10-08T11:23:28.875Z,72.34
2022-10-08T11:28:45.387Z,69.08
2022-10-08T11:33:49.512Z,71.49
2022-10-08T11:38:55.299Z,69.65
2022-10-08T11:44:02.499Z,76.05
2022-10-08T11:49:43.708Z,76.48
2022-10-08T11:54:55.331Z,80.68
2022-10-08T12:00:07.736Z,82.98
2022-10-08T12:05:19.813Z,84.48
2022-10-08T12:10:32.045Z,84.30
2022-10-08T12:15:56.187Z,85.53
2022-10-08T12:21:36.626Z,83.22
2022-10-08T12:27:17.365Z,80.68
2022-10-08T12:32:23.447Z,79.77
2022-10-08T12:37:55.362Z,79.05
2022-10-08T12:43:10.105Z,77.22
2022-10-08T12:48:21.954Z,75.36
2022-10-08T12:53:28.058Z,74.99
2022-10-08T12:58:34.517Z,74.41
2022-10-08T13:03:42.519Z,75.33
2022-10-08T13:08:47.876Z,76.94
2022-10-08T13:13:51.852Z,76.61
2022-10-08T13:18:58.730Z,76.57
2022-10-08T13:24:02.850Z,75.67
2022-10-08T13:29:18.971Z,75.50
2022-10-08T13:34:24.576Z,73.88
2022-10-08T13:39:30.901Z,73.88
2022-10-08T13:44:34.650Z,72.62
2022-10-08T13:49:38.576Z,74.22
2022-10-08T13:54:42.379Z,74.62
2022-10-08T13:59:45.431Z,75.76
2022-10-08T14:04:49.395Z,71.79
2022-10-08T14:09:53.010Z,67.30
2022-10-08T14:14:55.754Z,67.83
2022-10-08T14:20:00.131Z,62.74
2022-10-08T14:25:02.680Z,62.02
2022-10-08T14:30:06.268Z,65.02
2022-10-08T14:35:11.136Z,67.12
2022-10-08T14:40:19.262Z,66.46
2022-10-08T14:45:22.816Z,66.73
2022-10-08T14:50:26.809Z,70.59
2022-10-08T14:55:29.383Z,72.12
2022-10-08T15:00:31.974Z,72.06
2022-10-08T15:05:36.032Z,72.37
2022-10-08T15:10:39.880Z,73.11
2022-10-08T15:15:42.626Z,73.17
2022-10-08T15:20:54.677Z,75.14
2022-10-08T15:25:58.672Z,77.38
2022-10-08T15:31:02.846Z,84.09
2022-10-08T15:36:21.987Z,86.46
2022-10-08T15:41:24.938Z,86.33
2022-10-08T15:46:29.051Z,91.88
2022-10-08T15:51:33.661Z,92.46
2022-10-08T15:56:36.358Z,91.46
2022-10-08T16:01:39.156Z,90.51
2022-10-08T16:06:45.193Z,89.95
2022-10-08T16:11:48.713Z,89.70
2022-10-08T16:16:52.380Z,92.00
2022-10-08T16:21:58.206Z,88.59
2022-10-08T16:27:00.871Z,88.65
2022-10-08T16:32:03.727Z,88.35
2022-10-08T16:37:07.801Z,86.65
2022-10-08T16:42:10.971Z,89.00
2022-10-08T16:47:13.667Z,87.95
2022-10-08T16:52:17.680Z,92.48
2022-10-08T16:57:20.794Z,93.17
2022-10-08T17:02:25.977Z,95.18
2022-10-08T17:07:31.154Z,92.10
2022-10-08T17:12:33.889Z,95.17
2022-10-08T17:17:37.056Z,93.51
2022-10-08T17:22:41.120Z,96.01
2022-10-08T17:27:45.515Z,91.91
2022-10-08T17:32:48.480Z,91.65
2022-10-08T17:37:54.085Z,93.37
2022-10-08T17:42:59.115Z,93.81
2022-10-08T17:48:01.668Z,98.80
2022-10-08T17:53:05.585Z,100.00
2022-10-08T17:58:08.232Z,100.00
2022-10-08T18:03:10.861Z,100.00
2022-10-08T18:08:15.069Z,99.63
2022-10-08T18:13:17.625Z,98.68
2022-10-08T18:18:20.155Z,96.00
2022-10-08T18:23:24.355Z,95.32
2022-10-08T18:28:26.958Z,96.00
2022-10-08T18:33:32.332Z,95.53
2022-10-08T18:38:36.511Z,95.61
2022-10-08T18:43:39.162Z,98.03
2022-10-08T18:48:42.039Z,99.37
2022-10-08T18:53:46.757Z,100.00
2022-10-08T18:58:50.666Z,98.17
2022-10-08T19:03:55.737Z,100.00
2022-10-08T19:09:00.913Z,100.00
2022-10-08T19:14:04.685Z,100.00
2022-10-08T19:19:11.697Z,100.00
2022-10-08T19:24:18.011Z,100.00
2022-10-08T19:29:22.655Z,100.00
2022-10-08T19:34:27.561Z,100.00
2022-10-08T19:39:33.636Z,99.52
2022-10-08T19:44:36.787Z,100.00
2022-10-08T19:49:40.811Z,97.69
2022-10-08T19:54:44.764Z,100.00
2022-10-08T19:59:47.329Z,100.00
2022-10-08T20:04:49.883Z,100.00
2022-10-08T20:09:53.840Z,96.45
2022-10-08T20:14:56.430Z,95.28
2022-10-08T20:20:20.643Z,98.28
2022-10-08T20:25:23.452Z,98.79
2022-10-08T20:30:26.162Z,100.00
2022-10-08T20:35:28.765Z,100.00
2022-10-08T20:40:32.678Z,100.00
2022-10-08T20:45:35.850Z,100.00
2022-10-08T20:50:38.355Z,100.00
2022-10-08T20:55:42.272Z,100.00
2022-10-08T21:00:44.950Z,100.00
2022-10-08T21:05:47.507Z,100.00
2022-10-08T21:10:51.752Z,100.00
2022-10-08T21:16:00.948Z,100.00
2022-10-08T21:21:04.551Z,100.00
2022-10-08T21:26:22.725Z,100.00
2022-10-08T21:31:27.070Z,100.00
2022-10-08T21:36:31.503Z,100.00
2022-10-08T21:41:37.872Z,100.00
2022-10-08T21:46:42.975Z,100.00
2022-10-08T21:51:46.294Z,100.00
2022-10-08T21:56:50.274Z,100.00
2022-10-08T22:01:52.837Z,100.00
2022-10-08T22:06:58.283Z,100.00
2022-10-08T22:12:03.298Z,100.00
2022-10-08T22:17:06.021Z,100.00
2022-10-08T22:22:08.591Z,100.00
2022-10-08T22:27:15.182Z,100.00
2022-10-08T22:32:18.448Z,100.00
2022-10-08T22:37:20.992Z,100.00
2022-10-08T22:42:24.970Z,100.00
2022-10-08T22:47:27.531Z,100.00
2022-10-08T22:52:30.173Z,100.00
2022-10-08T22:57:34.082Z,100.00
2022-10-08T23:02:36.989Z,100.00
2022-10-08T23:07:39.614Z,100.00
2022-10-08T23:12:43.552Z,100.00
2022-10-08T23:17:46.146Z,100.00
2022-10-08T23:22:48.935Z,100.00
2022-10-08T23:27:53.063Z,100.00
2022-10-08T23:32:55.627Z,100.00
2022-10-08T23:37:58.191Z,100.00
2022-10-08T23:43:02.132Z,100.00
2022-10-08T23:48:04.754Z,100.00
2022-10-08T23:53:07.335Z,100.00
2022-10-08T23:58:11.240Z,100.00
